Historyczne dane pomiarowe

Dodano dane terminowe – wersja testowa.

Dane z okresu 1951-2019

Wersja bazy: 1.34 [2019-03-16, lista zmian], aktualizacja planowana na 2019-04-15

Dane meteo z obszaru Polski uzyskane na podstawie danych udostępnionych przez Instytut Meteorologii i Gospodarki Wodnej – Państwowy Instytut Badawczy.

 

Wybierz Datę:    

       

TemperaturaWilgotnośćWiatrCiśnienieOpadyŚniegCzas trwania zjawisk
 Stacja t tx tn tng RH VA  wxwx mslp ppp RRR   cm mm wxwxwxwxwxwxwx
1996-08-13 7.4 9.3 6.0- 98.6 10.2 7.9 7.1 5.5 0.0- 800.8 1.2 0.8 0.4- 0.0 1.9 3.9-- 20.8---
1996-08-14 6.9 8.9 6.0- 98.1 9.7 6.9 6.4 1.7 0.0- 799.3 10.8 10.8 0.0- 0.0 1.2 3.1-- 14.3---
1996-08-15 7.5 10.5 5.2- 91.4 9.5 5.9 2.3 0.0 0.0- 801.5 0.0 0.0 0.0- 0.0 4.5--- 9.6---
1996-08-16 7.0 8.1 5.9- 98.3 9.8 7.1 3.3 0.0 0.0- 801.0 22.6 0.5 22.1- 0.0 0.1 4.8-- 20.9---
1996-08-17 5.4 7.9 4.1- 99.8 8.9 8.0 7.6 0.0 0.0- 801.8 25.4 19.9 5.5- 0.0 0.0 21.6-- 22.1---
1996-08-18 6.4 9.4 3.8- 94.8 9.1 7.3 8.5 4.8 0.0- 805.3 3.5 3.5 0.0- 0.0 2.6 6.1-- 8.5-- 0.8
1996-08-19 8.4 11.7 6.1- 71.5 7.9 5.6 8.4 6.3 0.0- 807.1 2.3 0.8 1.5- 0.0 7.0 0.9-- 0.4---
1996-08-20 8.4 12.0 5.6- 73.4 8.1 3.8 4.8 0.0 0.0- 806.2 0.3 0.3 0.0- 0.0 8.4 0.9----- 2.2
1996-08-21 8.1 11.0 6.5- 89.0 9.6 4.8 2.5 0.0 0.0- 803.1 0.5 0.5 0.0- 0.0 2.0 0.4-- 2.8---
1996-08-22 6.6 8.4 5.6- 93.9 9.1 6.0 4.9 1.5 0.0- 799.3 4.2 0.1 4.1- 0.0 0.5 2.6-- 10.3 3.0--
1996-08-23 7.0 7.9 5.5- 99.1 9.9 8.0 7.4 5.7 0.0- 798.2 15.4 12.4 3.0- 0.0 0.0 15.5-- 23.5---
1996-08-24 9.2 13.4 5.8- 90.9 10.5 6.3 3.1 0.0 0.0- 799.9 0.0 0.0 0.0- 0.0 6.4--- 10.5---
1996-08-25 9.7 12.6 8.2- 77.0 9.3 3.8 1.5 0.0 0.0- 800.7 10.7 10.7 0.0- 0.0 5.4 2.4--- 5.0- 6.3
1996-08-26 8.4 12.2 6.8- 95.5 10.5 6.4 2.0 0.0 0.0- 802.3 0.0 0.0 0.0- 0.0 4.5 0.1-- 14.1-- 0.7
1996-08-27 9.1 12.3 7.5- 89.1 10.3 6.9 4.0 0.7 0.0- 805.0 0.7 0.0 0.7- 0.0 3.8 0.6-- 7.7-- 1.8
1996-08-28 9.6 12.4 7.9- 92.6 11.1 7.3 9.0 8.5 0.0- 803.5 54.7 0.0 54.7- 0.0 6.0 5.9-- 10.0-- 6.0
1996-08-29 8.8 11.3 7.4- 99.1 11.2 7.9 6.6 1.5 0.0- 803.5 1.1 0.6 0.5- 0.0 2.1 6.0-- 20.5-- 1.5
1996-08-30 8.8 11.4 7.3- 98.3 11.1 7.3 4.3 0.0 0.0- 804.1 3.8 2.3 1.5- 0.0 1.2 3.5-- 15.9-- 8.6
1996-08-31 6.1 9.3 4.8- 97.0 9.1 7.8 4.6 0.0 0.0- 803.6 40.2 12.9 27.3- 0.0 0.0 16.6-- 19.6---
1996-09-01 5.0 7.5 4.3-100.0 8.8 8.0 4.1 0.0 0.0- 802.5 11.2 1.5 9.7- 0.0 0.1 17.7-- 24.0---
1996-09-02 6.1 7.5 5.2-100.0 9.4 8.0 6.4 0.0 0.0- 802.7 11.6 2.6 9.0- 0.0 0.0 9.0-- 24.0---
1996-09-03 6.3 10.0 4.6- 90.8 8.6 6.8 6.6 0.0 0.0- 802.4 0.0 0.0 0.0- 0.0 5.9--- 7.1---
1996-09-04 4.4 5.9 3.7- 93.6 7.8 7.3 6.9 0.0 0.0- 799.7 4.4 0.4 4.0- 0.0 0.0 2.1-- 12.4---
1996-09-05 1.3 4.9 -1.3- 99.8 6.7 8.0 3.9 0.0 0.0- 793.0 56.7 34.2 22.5- 0.0 0.0 1.9 8.8 4.2 24.0---
1996-09-06 -1.4 -0.1 -2.4- 98.5 5.4 8.0 10.6 17.5 0.0- 789.0 24.5 9.7 14.8 15 2.5 0.0 1.3 16.8- 24.0---
1996-09-07 -1.2 -0.1 -2.7- 98.9 5.5 8.0 12.1 20.3 0.0- 787.8 72.2 35.4 36.8 30- 0.0 5.8 16.8- 24.0---
1996-09-08 0.1 0.4 -0.3-100.0 6.2 8.0 11.8 24.0 0.0- 792.6 56.6 31.5 25.1 18- 0.0 16.6 2.3 5.2 24.0---
1996-09-09 -1.4 0.5 -2.2- 98.8 5.4 8.0 5.8 4.2 0.0- 795.6 7.8 5.9 1.9 32 4.7 0.0 0.2 11.2 0.3 24.0---
1996-09-10 -2.4 -0.5 -3.1- 96.0 4.9 7.1 5.9 0.0 0.0- 794.5 5.1 4.8 0.3 27 4.2 1.9- 7.9- 11.5---
1996-09-11 -1.3 -0.3 -3.7- 98.4 5.5 8.0 10.1 15.0 0.0- 793.3 4.1 4.1 0.0 32- 0.5- 6.2- 13.3---
245.7 ms

 

Źródłem pochodzenia danych jest Instytut Meteorologii i Gospodarki Wodnej – Państwowy Instytut Badawczy. Dane Instytutu Meteorologii i Gospodarki Wodnej – Państwowego Instytutu Badawczego zostały przetworzone.

Dane źródłowe można odnaleźć na stronie https://dane.imgw.pl